Time;durP1;ratioP1;P1;durP2;ratioP2;P2;SDS_P1;SDS_P2;PMS_P1;PMS_P2;Temp;Humidity;BMP_temperature;BMP_pressure;BME280_temperature;BME280_humidity;BME280_pressure;Samples;Min_cycle;Max_cycle;Signal;HPM_P1;HPM_P2
2023/12/05 00:01:52;;;;;;;12.35;8.93;;;;;;;2.34;100.00;99772.66;4827797;29;20054;-67
2023/12/05 00:04:40;;;;;;;11.80;8.63;;;;;;;2.34;100.00;99760.00;4841589;29;20448;-68
2023/12/05 00:07:28;;;;;;;10.27;7.90;;;;;;;2.35;100.00;99758.94;4843973;29;20045;-67
2023/12/05 00:10:17;;;;;;;11.75;8.55;;;;;;;2.40;100.00;99755.53;4832994;29;20062;-66
2023/12/05 00:13:07;;;;;;;11.68;9.27;;;;;;;2.42;100.00;99761.50;4845905;29;20046;-68
2023/12/05 00:15:55;;;;;;;11.38;8.38;;;;;;;2.41;100.00;99749.13;4844231;29;20054;-72
2023/12/05 00:18:47;;;;;;;10.93;8.77;;;;;;;2.40;100.00;99750.16;4840957;29;20046;-68
2023/12/05 00:21:35;;;;;;;12.02;8.90;;;;;;;2.42;100.00;99749.94;4827689;29;20042;-67
2023/12/05 00:24:23;;;;;;;11.77;8.63;;;;;;;2.42;100.00;99750.75;4825941;29;20047;-68
2023/12/05 00:27:11;;;;;;;12.15;9.18;;;;;;;2.45;100.00;99749.44;4826625;29;20096;-68
2023/12/05 00:30:00;;;;;;;11.20;8.88;;;;;;;2.46;100.00;99746.53;4824801;29;20062;-67
2023/12/05 00:32:48;;;;;;;12.02;9.63;;;;;;;2.43;100.00;99744.34;4829361;29;20133;-67
2023/12/05 00:35:36;;;;;;;11.73;9.27;;;;;;;2.44;100.00;99737.06;4831964;29;20077;-66
2023/12/05 00:38:24;;;;;;;11.00;8.63;;;;;;;2.46;100.00;99735.78;4825165;29;20488;-67
2023/12/05 00:41:12;;;;;;;11.93;9.15;;;;;;;2.47;100.00;99732.03;4842307;29;20187;-67
2023/12/05 00:44:00;;;;;;;11.18;8.95;;;;;;;2.49;100.00;99740.66;4843672;29;20058;-67
2023/12/05 00:46:49;;;;;;;10.82;8.70;;;;;;;2.49;100.00;99734.47;4814502;29;20111;-66
2023/12/05 00:49:37;;;;;;;11.73;9.20;;;;;;;2.52;100.00;99734.78;4825961;29;20519;-67
2023/12/05 00:52:25;;;;;;;12.63;9.73;;;;;;;2.53;100.00;99733.75;4826113;29;20061;-67
2023/12/05 00:55:13;;;;;;;12.00;9.00;;;;;;;2.53;100.00;99731.06;4827742;29;20200;-66
2023/12/05 00:58:02;;;;;;;10.38;8.32;;;;;;;2.57;100.00;99731.38;4829822;29;20423;-66
2023/12/05 01:00:50;;;;;;;11.75;9.63;;;;;;;2.60;100.00;99736.28;4843013;29;20352;-67
2023/12/05 01:03:38;;;;;;;11.85;9.10;;;;;;;2.58;100.00;99732.22;4812404;29;20065;-66
2023/12/05 01:06:26;;;;;;;12.15;9.82;;;;;;;2.58;100.00;99734.91;4824016;29;20062;-66
2023/12/05 01:09:14;;;;;;;12.75;9.25;;;;;;;2.60;100.00;99736.28;4823745;29;20058;-66
2023/12/05 01:12:02;;;;;;;11.40;8.82;;;;;;;2.62;100.00;99728.81;4812575;29;20043;-65
2023/12/05 01:14:50;;;;;;;12.13;9.82;;;;;;;2.59;100.00;99723.88;4836971;29;20081;-67
2023/12/05 01:17:38;;;;;;;11.50;9.18;;;;;;;2.61;100.00;99729.84;4842715;29;20073;-66
2023/12/05 01:20:26;;;;;;;12.57;9.77;;;;;;;2.63;100.00;99729.63;4842371;29;20054;-67
2023/12/05 01:23:14;;;;;;;10.85;8.88;;;;;;;2.63;100.00;99726.94;4823423;29;20125;-67
2023/12/05 01:26:02;;;;;;;13.07;10.15;;;;;;;2.63;100.00;99724.25;4837415;29;20389;-67
2023/12/05 01:28:50;;;;;;;11.73;9.50;;;;;;;2.64;100.00;99731.22;4841813;29;20137;-66
2023/12/05 01:31:38;;;;;;;12.52;10.10;;;;;;;2.65;100.00;99722.13;4842748;29;20110;-67
2023/12/05 01:34:26;;;;;;;12.55;10.18;;;;;;;2.62;100.00;99722.59;4816516;29;20108;-67
2023/12/05 01:37:14;;;;;;;12.23;10.23;;;;;;;2.61;100.00;99726.34;4839092;29;20586;-68
2023/12/05 01:40:03;;;;;;;12.57;10.07;;;;;;;2.63;100.00;99719.66;4842408;29;20050;-69
2023/12/05 01:42:51;;;;;;;13.55;10.10;;;;;;;2.62;100.00;99725.28;4830072;29;20054;-67
2023/12/05 01:45:40;;;;;;;12.35;10.82;;;;;;;2.62;100.00;99726.13;4811975;29;20195;-67
2023/12/05 01:48:28;;;;;;;12.18;10.30;;;;;;;2.62;100.00;99734.19;4825112;29;20069;-66
2023/12/05 01:51:17;;;;;;;13.27;10.75;;;;;;;2.64;100.00;99726.66;4824264;29;20095;-67
2023/12/05 01:54:07;;;;;;;13.88;10.20;;;;;;;2.63;100.00;99722.34;4824321;29;20077;-68
2023/12/05 01:56:56;;;;;;;13.38;10.63;;;;;;;2.68;100.00;99729.69;4837670;29;20053;-67
2023/12/05 01:59:44;;;;;;;13.70;11.25;;;;;;;2.68;100.00;99729.69;4829893;29;20082;-67
2023/12/05 02:02:32;;;;;;;12.05;9.82;;;;;;;2.68;100.00;99733.19;4838995;29;20061;-67
2023/12/05 02:05:20;;;;;;;12.50;10.43;;;;;;;2.71;100.00;99729.22;4822987;29;20058;-66
2023/12/05 02:08:09;;;;;;;11.98;10.10;;;;;;;2.71;100.00;99734.59;4812507;29;20086;-66
2023/12/05 02:10:57;;;;;;;12.18;9.73;;;;;;;2.71;100.00;99732.69;4824057;29;20052;-66
2023/12/05 02:13:47;;;;;;;13.07;10.48;;;;;;;2.73;100.00;99732.47;4825007;29;20046;-66
2023/12/05 02:16:36;;;;;;;13.63;10.90;;;;;;;2.75;100.00;99730.34;4819867;29;20083;-68
2023/12/05 02:19:47;;;;;;;11.60;8.77;;;;;;;2.76;100.00;99726.59;4825161;29;20178;-66
2023/12/05 02:23:14;;;;;;;12.75;10.20;;;;;;;2.79;100.00;99734.19;4838529;29;20050;-60
2023/12/05 02:26:13;;;;;;;11.95;9.60;;;;;;;2.83;100.00;99732.63;4831405;29;20058;-61
2023/12/05 02:29:02;;;;;;;11.38;9.50;;;;;;;2.81;100.00;99742.81;4839158;29;20128;-68
2023/12/05 02:31:49;;;;;;;12.07;9.82;;;;;;;2.81;100.00;99726.69;4835173;29;20111;-66
2023/12/05 02:34:37;;;;;;;13.32;10.35;;;;;;;2.80;100.00;99727.75;4845029;29;20049;-62
2023/12/05 02:37:32;;;;;;;12.27;9.88;;;;;;;2.81;100.00;99725.88;4858880;29;20058;-68
2023/12/05 02:40:34;;;;;;;11.30;9.50;;;;;;;2.83;100.00;99724.56;4812723;29;20047;-66
2023/12/05 02:43:31;;;;;;;11.95;9.75;;;;;;;2.82;100.00;99731.03;4824842;29;20069;-64
2023/12/05 02:46:20;;;;;;;12.88;10.82;;;;;;;2.83;100.00;99727.25;4822523;29;20051;-66
2023/12/05 02:49:09;;;;;;;12.52;9.68;;;;;;;2.83;100.00;99719.19;4823668;29;20057;-66
2023/12/05 02:51:57;;;;;;;11.43;9.60;;;;;;;2.84;100.00;99723.53;4831633;29;20062;-66
2023/12/05 02:54:45;;;;;;;13.00;10.23;;;;;;;2.83;100.00;99716.50;4842019;29;20507;-66
2023/12/05 02:57:33;;;;;;;11.95;9.90;;;;;;;2.85;100.00;99716.25;4836715;29;20057;-67
2023/12/05 03:00:22;;;;;;;11.75;9.82;;;;;;;2.86;100.00;99724.09;4837430;29;20087;-66
2023/12/05 03:03:10;;;;;;;12.20;10.13;;;;;;;2.88;100.00;99718.47;4839679;29;20049;-66
2023/12/05 03:05:58;;;;;;;11.93;9.55;;;;;;;2.90;100.00;99714.47;4823304;29;20058;-65
2023/12/05 03:08:46;;;;;;;13.68;10.68;;;;;;;2.88;100.00;99719.25;4835218;29;20050;-67
2023/12/05 03:11:34;;;;;;;11.45;9.32;;;;;;;2.91;100.00;99715.25;4824637;29;20138;-66
2023/12/05 03:14:22;;;;;;;11.48;9.32;;;;;;;2.93;100.00;99700.50;4822927;29;20133;-68
2023/12/05 03:17:10;;;;;;;11.98;9.27;;;;;;;2.95;100.00;99711.03;4834218;29;20136;-68
2023/12/05 03:19:58;;;;;;;12.25;10.13;;;;;;;2.97;100.00;99701.66;4835900;29;20536;-66
2023/12/05 03:22:46;;;;;;;11.80;9.35;;;;;;;2.96;100.00;99701.91;4841890;29;20154;-67
2023/12/05 03:25:34;;;;;;;11.70;9.00;;;;;;;2.95;100.00;99703.78;4845370;29;20050;-67
2023/12/05 03:28:22;;;;;;;10.90;8.45;;;;;;;2.98;100.00;99706.00;4833622;29;20568;-68
2023/12/05 03:31:10;;;;;;;11.63;9.70;;;;;;;3.01;100.00;99703.84;4826050;29;20187;-68
2023/12/05 03:33:58;;;;;;;11.13;8.95;;;;;;;3.02;100.00;99702.81;4825772;29;20141;-66
2023/12/05 03:36:46;;;;;;;11.98;10.15;;;;;;;3.01;100.00;99704.69;4826261;29;20062;-66
2023/12/05 03:39:34;;;;;;;12.15;9.70;;;;;;;3.03;100.00;99709.81;4826099;29;20058;-66
2023/12/05 03:42:22;;;;;;;10.98;8.73;;;;;;;3.05;100.00;99705.00;4827788;29;20133;-67
2023/12/05 03:45:10;;;;;;;10.48;8.50;;;;;;;3.05;100.00;99705.00;4826424;29;20054;-66
2023/12/05 03:47:58;;;;;;;14.52;9.85;;;;;;;3.05;100.00;99705.81;4825023;29;20046;-67
2023/12/05 03:50:47;;;;;;;14.18;9.77;;;;;;;3.06;100.00;99712.03;4825279;29;20066;-67
2023/12/05 03:53:35;;;;;;;11.18;9.05;;;;;;;3.07;100.00;99724.41;4826185;29;20046;-66
2023/12/05 03:56:23;;;;;;;11.98;9.60;;;;;;;3.09;100.00;99722.28;4831862;29;20042;-67
2023/12/05 03:59:11;;;;;;;11.20;8.88;;;;;;;3.08;100.00;99726.88;4826049;29;20422;-69
2023/12/05 04:01:59;;;;;;;10.75;8.70;;;;;;;3.09;100.00;99725.78;4826340;29;20046;-66
2023/12/05 04:04:47;;;;;;;11.77;9.73;;;;;;;3.10;100.00;99723.91;4840652;29;20137;-66
2023/12/05 04:07:37;;;;;;;10.65;9.00;;;;;;;3.09;100.00;99727.66;4842068;29;20046;-68
2023/12/05 04:10:25;;;;;;;10.48;8.18;;;;;;;3.11;100.00;99725.56;4831162;29;20132;-69
2023/12/05 04:13:15;;;;;;;11.50;9.07;;;;;;;3.13;100.00;99723.44;4843457;29;20053;-67
2023/12/05 04:16:03;;;;;;;12.43;9.90;;;;;;;3.15;100.00;99729.38;4825225;29;20054;-67
2023/12/05 04:18:52;;;;;;;12.30;10.48;;;;;;;3.15;100.00;99723.97;4827641;29;20456;-68
2023/12/05 04:21:40;;;;;;;12.05;10.55;;;;;;;3.16;100.00;99733.69;4824875;29;20061;-67
2023/12/05 04:24:28;;;;;;;11.10;8.98;;;;;;;3.16;100.00;99733.69;4829470;29;20058;-68
2023/12/05 04:27:16;;;;;;;12.52;10.70;;;;;;;3.19;100.00;99738.59;4827424;29;20062;-68
2023/12/05 04:30:05;;;;;;;14.63;10.70;;;;;;;3.18;100.00;99739.66;4826451;29;20500;-69
2023/12/05 04:32:53;;;;;;;12.45;10.27;;;;;;;3.19;100.00;99743.97;4824837;29;20073;-68
2023/12/05 04:35:41;;;;;;;12.85;10.65;;;;;;;3.20;100.00;99751.00;4824827;29;20066;-69
2023/12/05 04:38:29;;;;;;;12.95;10.60;;;;;;;3.20;100.00;99753.69;4842462;29;20090;-68
2023/12/05 04:41:17;;;;;;;11.10;8.85;;;;;;;3.19;100.00;99746.66;4843817;29;20060;-65
2023/12/05 04:44:05;;;;;;;13.07;9.25;;;;;;;3.22;100.00;99748.03;4842672;29;20061;-67
2023/12/05 04:46:53;;;;;;;13.70;10.45;;;;;;;3.23;100.00;99750.50;4831945;29;20465;-68
2023/12/05 04:49:42;;;;;;;12.00;9.80;;;;;;;3.25;100.00;99751.06;4824779;29;20050;-67
2023/12/05 04:52:30;;;;;;;10.98;9.23;;;;;;;3.26;100.00;99746.50;4826283;29;20066;-66
2023/12/05 04:55:18;;;;;;;13.57;10.95;;;;;;;3.24;100.00;99746.72;4840108;29;20060;-67
2023/12/05 04:58:06;;;;;;;11.75;9.88;;;;;;;3.23;100.00;99747.81;4842408;29;20057;-71
2023/12/05 05:00:54;;;;;;;12.77;10.05;;;;;;;3.26;100.00;99754.56;4842404;29;20129;-66
2023/12/05 05:03:45;;;;;;;12.40;10.02;;;;;;;3.27;100.00;99750.81;4843903;29;20396;-67
2023/12/05 05:06:33;;;;;;;11.48;9.55;;;;;;;3.26;100.00;99759.97;4836595;29;20050;-69
2023/12/05 05:09:21;;;;;;;13.05;10.82;;;;;;;3.25;100.00;99763.69;4837005;29;20054;-68
2023/12/05 05:12:10;;;;;;;12.50;9.73;;;;;;;3.25;100.00;99775.31;4842980;29;20522;-66
2023/12/05 05:14:58;;;;;;;12.20;9.48;;;;;;;3.25;100.00;99767.22;4843291;29;20432;-68
2023/12/05 05:17:46;;;;;;;12.82;10.48;;;;;;;3.24;100.00;99767.47;4841761;29;20069;-67
2023/12/05 05:20:34;;;;;;;11.80;10.07;;;;;;;3.25;100.00;99761.84;4826216;29;20050;-67
2023/12/05 05:23:22;;;;;;;11.88;9.68;;;;;;;3.27;100.00;99761.56;4840303;29;20137;-67
2023/12/05 05:26:10;;;;;;;11.00;9.07;;;;;;;3.27;100.00;99766.97;4811317;29;20042;-66
2023/12/05 05:28:58;;;;;;;10.27;8.65;;;;;;;3.27;100.00;99767.81;4824558;29;20060;-66
2023/12/05 05:31:46;;;;;;;11.05;8.63;;;;;;;3.24;100.00;99765.56;4826373;29;20423;-66
2023/12/05 05:34:34;;;;;;;9.70;7.68;;;;;;;3.24;100.00;99773.66;4825667;29;20054;-66
2023/12/05 05:37:22;;;;;;;11.55;9.30;;;;;;;3.24;100.00;99779.03;4822015;29;20137;-66
2023/12/05 05:40:10;;;;;;;9.63;8.13;;;;;;;3.22;100.00;99775.78;4837951;29;20053;-67
2023/12/05 05:42:58;;;;;;;10.15;7.50;;;;;;;3.19;100.00;99773.56;4842699;29;20182;-66
2023/12/05 05:45:46;;;;;;;11.70;9.75;;;;;;;3.19;100.00;99781.66;4837793;29;20049;-66
2023/12/05 05:48:34;;;;;;;11.20;9.25;;;;;;;3.16;100.00;99776.78;4803619;29;20061;-66
2023/12/05 05:51:22;;;;;;;12.93;10.90;;;;;;;3.13;100.00;99782.66;4845017;29;20065;-64
2023/12/05 05:54:10;;;;;;;12.82;11.32;;;;;;;3.11;100.00;99780.19;4830674;29;20050;-67
2023/12/05 05:56:58;;;;;;;13.02;11.05;;;;;;;3.11;100.00;99785.56;4827890;29;20057;-66
2023/12/05 05:59:46;;;;;;;15.18;11.57;;;;;;;3.08;100.00;99796.84;4832509;29;20061;-67
2023/12/05 06:02:35;;;;;;;14.57;10.63;;;;;;;3.06;100.00;99792.75;4838846;29;20061;-66
2023/12/05 06:05:24;;;;;;;13.73;11.18;;;;;;;3.06;100.00;99796.25;4834627;29;20563;-66
2023/12/05 06:08:12;;;;;;;12.18;10.10;;;;;;;3.06;100.00;99792.75;4845532;29;20054;-66
2023/12/05 06:11:01;;;;;;;13.23;11.13;;;;;;;3.08;100.00;99796.00;4843481;29;20137;-66
2023/12/05 06:13:49;;;;;;;12.07;10.23;;;;;;;3.05;100.00;99797.28;4843444;29;20062;-64
2023/12/05 06:16:37;;;;;;;12.43;10.75;;;;;;;3.05;100.00;99804.56;4842670;29;20114;-66
2023/12/05 06:19:25;;;;;;;15.85;12.38;;;;;;;3.05;100.00;99807.25;4841842;29;20291;-65
2023/12/05 06:22:13;;;;;;;13.63;11.63;;;;;;;3.04;100.00;99800.25;4832591;29;20054;-65
2023/12/05 06:25:01;;;;;;;12.88;10.95;;;;;;;3.04;100.00;99800.25;4825032;29;20058;-66
2023/12/05 06:27:50;;;;;;;15.27;12.98;;;;;;;3.03;100.00;99803.97;4824109;29;20488;-65
2023/12/05 06:30:39;;;;;;;14.10;12.00;;;;;;;2.97;100.00;99811.97;4830024;29;20057;-67
2023/12/05 06:33:27;;;;;;;15.77;12.43;;;;;;;2.93;100.00;99815.38;4842225;29;20053;-67
2023/12/05 06:36:16;;;;;;;14.20;12.45;;;;;;;2.96;100.00;99813.03;4841949;29;20061;-66
2023/12/05 06:39:08;;;;;;;14.43;12.38;;;;;;;3.01;100.00;99814.16;4842160;29;20152;-70
2023/12/05 06:41:56;;;;;;;15.35;12.70;;;;;;;2.93;100.00;99826.16;4825986;29;20569;-66
2023/12/05 06:44:44;;;;;;;13.73;11.68;;;;;;;2.88;100.00;99826.88;4502958;29;9999740;-67
2023/12/05 06:47:33;;;;;;;14.55;12.27;;;;;;;2.86;100.00;99825.47;4839628;29;20419;-69
2023/12/05 06:50:21;;;;;;;13.57;11.32;;;;;;;2.83;100.00;99825.97;4838159;29;20121;-62
2023/12/05 06:53:09;;;;;;;14.13;11.65;;;;;;;2.79;100.00;99820.28;4851945;29;20129;-68
2023/12/05 06:55:57;;;;;;;14.60;13.00;;;;;;;2.82;100.00;99824.34;4843021;29;20050;-67
2023/12/05 06:58:45;;;;;;;13.48;11.32;;;;;;;2.77;100.00;99838.53;4851901;29;20360;-64
2023/12/05 07:01:33;;;;;;;14.65;12.52;;;;;;;2.80;100.00;99847.97;4840155;29;20066;-62
2023/12/05 07:04:22;;;;;;;15.32;12.93;;;;;;;2.77;100.00;99843.91;4845208;29;20096;-68
2023/12/05 07:07:10;;;;;;;15.82;13.60;;;;;;;2.77;100.00;99841.22;4813011;29;20065;-68
2023/12/05 07:09:58;;;;;;;18.02;13.77;;;;;;;2.75;100.00;99835.25;4838475;29;20061;-68
2023/12/05 07:12:46;;;;;;;15.40;13.02;;;;;;;2.72;100.00;99851.88;4834399;29;20049;-68
2023/12/05 07:15:34;;;;;;;15.63;13.63;;;;;;;2.68;100.00;99853.41;4823256;29;20457;-68
2023/12/05 07:18:22;;;;;;;17.13;14.48;;;;;;;2.71;100.00;99850.22;4818716;29;20061;-71
2023/12/05 07:21:11;;;;;;;15.27;13.20;;;;;;;2.75;100.00;99867.53;4820161;29;20126;-66
2023/12/05 07:23:59;;;;;;;15.73;12.93;;;;;;;2.72;100.00;99865.34;4836072;29;20081;-67
2023/12/05 07:26:48;;;;;;;15.82;13.38;;;;;;;2.79;100.00;99868.69;4834954;29;20133;-68
2023/12/05 07:29:36;;;;;;;16.90;13.00;;;;;;;2.81;100.00;99869.25;4825737;29;20050;-66
2023/12/05 07:32:24;;;;;;;15.88;12.55;;;;;;;2.74;100.00;99873.94;4832913;29;20065;-68
2023/12/05 07:35:12;;;;;;;16.77;13.80;;;;;;;2.77;100.00;99881.56;4836771;29;20118;-67
2023/12/05 07:38:00;;;;;;;16.98;12.57;;;;;;;2.80;100.00;99886.47;4836892;29;20110;-65
2023/12/05 07:40:48;;;;;;;19.67;13.10;;;;;;;2.79;100.00;99887.53;4833304;29;20534;-66
2023/12/05 07:43:36;;;;;;;16.08;12.75;;;;;;;2.78;100.00;99892.06;4836782;29;20050;-67
2023/12/05 07:46:25;;;;;;;17.08;14.18;;;;;;;2.81;100.00;99896.16;4837045;29;20074;-68
2023/12/05 07:49:13;;;;;;;15.27;13.23;;;;;;;2.80;100.00;99897.22;4821360;29;20054;-68
2023/12/05 07:52:04;;;;;;;16.60;14.65;;;;;;;2.72;100.00;99901.09;4822403;29;20050;-69
2023/12/05 07:54:52;;;;;;;18.65;16.17;;;;;;;2.72;100.00;99903.00;4832866;29;20046;-68
2023/12/05 07:57:40;;;;;;;18.17;16.27;;;;;;;2.68;100.00;99915.28;4815516;29;20046;-67
2023/12/05 08:00:28;;;;;;;19.48;16.38;;;;;;;2.62;100.00;99917.06;4825885;29;20057;-67
2023/12/05 08:03:16;;;;;;;18.40;14.63;;;;;;;2.53;100.00;99921.97;4820308;29;20047;-65
2023/12/05 08:06:05;;;;;;;17.27;14.50;;;;;;;2.59;100.00;99927.44;4818992;29;20529;-66
2023/12/05 08:08:53;;;;;;;18.33;14.93;;;;;;;2.59;100.00;99928.25;4819322;29;20288;-67
2023/12/05 08:11:42;;;;;;;20.05;14.95;;;;;;;2.54;100.00;99930.84;4823574;29;20110;-64
2023/12/05 08:14:30;;;;;;;17.67;15.52;;;;;;;2.58;100.00;99939.28;4822899;29;20090;-65
2023/12/05 08:17:18;;;;;;;20.77;17.15;;;;;;;2.45;100.00;99941.13;4824578;29;20133;-65
2023/12/05 08:20:06;;;;;;;20.48;17.70;;;;;;;2.46;100.00;99945.47;4812360;29;20141;-65
2023/12/05 08:22:54;;;;;;;19.83;17.75;;;;;;;2.46;100.00;99945.47;4825566;29;20408;-65
2023/12/05 08:25:42;;;;;;;21.67;16.33;;;;;;;2.43;100.00;99951.34;4826541;29;20046;-66
2023/12/05 08:28:30;;;;;;;20.40;15.85;;;;;;;2.53;100.00;99961.50;4826816;29;20047;-67
2023/12/05 08:31:18;;;;;;;17.85;14.48;;;;;;;2.62;100.00;99970.00;4827954;29;20512;-66
2023/12/05 08:34:06;;;;;;;18.55;14.43;;;;;;;2.61;100.00;99968.38;4829948;29;20525;-64
2023/12/05 08:36:55;;;;;;;19.48;14.70;;;;;;;2.58;100.00;99966.16;4825830;29;20133;-65
2023/12/05 08:39:43;;;;;;;19.58;14.65;;;;;;;2.58;100.00;99972.34;4841731;29;20066;-65
2023/12/05 08:42:31;;;;;;;19.05;15.00;;;;;;;2.56;100.00;99977.94;4825101;29;20050;-65
2023/12/05 08:45:19;;;;;;;18.52;14.70;;;;;;;2.54;100.00;99974.69;4826262;29;20058;-65
2023/12/05 08:48:07;;;;;;;18.77;14.05;;;;;;;2.55;100.00;99972.84;4827896;29;20536;-65
2023/12/05 08:50:55;;;;;;;19.58;15.43;;;;;;;2.56;100.00;99977.94;4836840;29;20511;-65
2023/12/05 08:53:44;;;;;;;19.98;15.27;;;;;;;2.55;100.00;99973.63;4826493;29;20062;-64
2023/12/05 08:56:32;;;;;;;19.77;16.08;;;;;;;2.53;100.00;99983.00;4831564;29;20050;-66
2023/12/05 08:59:20;;;;;;;19.67;15.30;;;;;;;2.57;100.00;99978.75;4834135;29;20046;-66
2023/12/05 09:02:08;;;;;;;20.75;15.60;;;;;;;2.67;100.00;99989.75;4831629;29;20141;-66
2023/12/05 09:04:56;;;;;;;17.98;14.93;;;;;;;2.66;100.00;99995.38;4827457;29;20057;-64
2023/12/05 09:07:44;;;;;;;21.70;15.25;;;;;;;2.61;100.00;99989.88;4829350;29;20046;-67
2023/12/05 09:10:36;;;;;;;22.55;16.75;;;;;;;2.56;100.00;99983.34;4824791;29;20077;-65
2023/12/05 09:13:25;;;;;;;20.85;15.80;;;;;;;2.52;100.00;99994.78;4825258;29;20179;-66
2023/12/05 09:16:13;;;;;;;21.02;16.08;;;;;;;2.55;100.00;100002.41;4825626;29;20065;-66
2023/12/05 09:19:01;;;;;;;20.50;15.85;;;;;;;2.47;100.00;100002.75;4826373;29;20058;-65
2023/12/05 09:21:52;;;;;;;19.95;15.55;;;;;;;2.47;100.00;100006.25;4823783;29;20530;-66
2023/12/05 09:24:40;;;;;;;20.52;15.23;;;;;;;2.52;100.00;100003.66;4823722;29;20050;-65
2023/12/05 09:27:28;;;;;;;22.05;16.08;;;;;;;2.55;100.00;100011.28;4840362;29;20081;-66
2023/12/05 09:30:18;;;;;;;23.58;16.05;;;;;;;2.59;100.00;100013.50;4831962;29;20065;-66
2023/12/05 09:33:06;;;;;;;22.33;16.35;;;;;;;2.60;100.00;100010.59;4826299;29;20138;-66
2023/12/05 09:35:55;;;;;;;21.70;17.00;;;;;;;2.60;100.00;100025.88;4833209;29;20082;-66
2023/12/05 09:38:42;;;;;;;21.45;15.77;;;;;;;2.64;100.00;100025.19;4825046;29;20480;-66
2023/12/05 09:41:31;;;;;;;20.33;16.42;;;;;;;2.67;100.00;100031.94;4825926;29;20053;-64
2023/12/05 09:44:23;;;;;;;21.30;17.05;;;;;;;2.70;100.00;100036.88;4826456;29;20058;-65
2023/12/05 09:47:12;;;;;;;23.88;17.33;;;;;;;2.70;100.00;100042.25;4823702;29;20456;-65
2023/12/05 09:50:00;;;;;;;22.95;16.63;;;;;;;2.59;100.00;100035.00;4833521;29;20053;-64
2023/12/05 09:52:48;;;;;;;22.50;17.42;;;;;;;2.62;100.00;100045.28;4819388;29;20061;-65
2023/12/05 09:55:37;;;;;;;22.05;16.58;;;;;;;2.67;100.00;100042.72;4822372;29;20053;-64
2023/12/05 09:58:25;;;;;;;22.05;16.67;;;;;;;2.68;100.00;100044.38;4824175;29;20061;-66
2023/12/05 10:01:17;;;;;;;22.42;17.95;;;;;;;2.68;100.00;100047.06;4803444;29;20069;-65
2023/12/05 10:04:10;;;;;;;22.58;17.38;;;;;;;2.75;100.00;100045.06;4828975;29;20137;-65
2023/12/05 10:07:00;;;;;;;22.85;17.23;;;;;;;2.66;100.00;100051.84;4828117;29;20054;-65
2023/12/05 10:09:48;;;;;;;24.60;17.58;;;;;;;2.65;100.00;100060.97;4823729;29;20045;-65
2023/12/05 10:12:36;;;;;;;25.08;19.30;;;;;;;2.65;100.00;100058.28;4823671;29;20142;-65
2023/12/05 10:15:24;;;;;;;22.13;17.08;;;;;;;2.64;100.00;100053.94;4823720;29;20059;-66
2023/12/05 10:18:13;;;;;;;23.83;18.15;;;;;;;2.67;100.00;100064.22;4826835;29;20104;-66
2023/12/05 10:21:02;;;;;;;24.55;20.05;;;;;;;2.61;100.00;100067.88;4824669;29;20077;-65
2023/12/05 10:23:52;;;;;;;26.38;21.05;;;;;;;2.61;100.00;100075.94;4823324;29;20400;-65
2023/12/05 10:26:49;;;;;;;27.15;22.33;;;;;;;2.61;100.00;100071.38;4822542;29;20516;-64
2023/12/05 10:29:39;;;;;;;26.20;19.75;;;;;;;2.62;100.00;100070.34;4828328;29;20056;-65
2023/12/05 10:32:27;;;;;;;28.67;20.20;;;;;;;2.65;100.00;100082.50;4840508;29;20057;-66
2023/12/05 10:35:16;;;;;;;25.42;19.42;;;;;;;2.74;100.00;100078.38;4831181;29;20051;-67
2023/12/05 10:38:08;;;;;;;25.92;19.40;;;;;;;2.78;100.00;100083.06;4833025;29;20134;-66
2023/12/05 10:40:59;;;;;;;25.85;19.10;;;;;;;2.77;100.00;100086.00;4840901;29;20091;-65
2023/12/05 10:43:51;;;;;;;26.58;19.83;;;;;;;2.71;100.00;100086.91;4824531;29;20412;-66
2023/12/05 10:46:39;;;;;;;27.98;21.90;;;;;;;2.73;100.00;100091.00;4831717;29;20130;-66
2023/12/05 10:49:27;;;;;;;28.50;21.40;;;;;;;2.76;100.00;100092.41;4798538;29;20126;-66
2023/12/05 10:52:16;;;;;;;27.00;20.85;;;;;;;2.76;100.00;100085.16;4833014;29;20053;-67
2023/12/05 10:55:04;;;;;;;26.42;19.92;;;;;;;2.73;100.00;100085.63;4829657;29;20415;-66
2023/12/05 10:57:53;;;;;;;26.77;20.60;;;;;;;2.70;100.00;100096.06;4812397;29;20043;-66
2023/12/05 11:00:42;;;;;;;28.70;17.98;;;;;;;2.74;100.00;100103.44;4836423;29;20050;-65
2023/12/05 11:03:31;;;;;;;27.02;19.20;;;;;;;2.75;100.00;100113.13;4842241;29;20136;-65
2023/12/05 11:06:20;;;;;;;25.15;17.95;;;;;;;2.77;100.00;100110.22;4845516;29;20046;-63
2023/12/05 11:09:09;;;;;;;23.17;17.63;;;;;;;2.84;100.00;100118.97;4174836;29;10000723;-65
2023/12/05 11:11:57;;;;;;;22.60;17.42;;;;;;;2.83;100.00;100117.31;4855520;29;20048;-64
2023/12/05 11:14:50;;;;;;;20.98;15.15;;;;;;;2.80;100.00;100117.00;4852018;29;20532;-66
2023/12/05 11:17:41;;;;;;;20.65;14.80;;;;;;;2.70;100.00;100117.56;4836596;29;20054;-64
2023/12/05 11:20:45;;;;;;;19.98;13.70;;;;;;;2.65;100.00;100126.34;4832873;29;20065;-68
2023/12/05 11:24:00;;;;;;;20.58;15.20;;;;;;;2.63;100.00;100133.00;4851832;29;20117;-67
2023/12/05 11:27:04;;;;;;;20.23;14.27;;;;;;;2.64;100.00;100134.63;4854288;29;20054;-64
2023/12/05 11:30:13;;;;;;;22.02;16.13;;;;;;;2.63;100.00;100138.38;4827520;29;20046;-66
2023/12/05 11:33:29;;;;;;;18.88;15.40;;;;;;;2.60;100.00;100133.44;4820710;29;20110;-67
2023/12/05 11:36:27;;;;;;;20.38;14.40;;;;;;;2.64;100.00;100145.38;4795771;29;20046;-66
2023/12/05 11:39:17;;;;;;;20.15;15.25;;;;;;;2.69;100.00;100138.25;4821052;29;20403;-67
2023/12/05 11:42:10;;;;;;;18.40;13.57;;;;;;;2.64;100.00;100140.81;4806951;29;20105;-68
2023/12/05 11:44:58;;;;;;;19.50;13.75;;;;;;;2.63;100.00;100149.13;4824949;29;20082;-67
2023/12/05 11:47:47;;;;;;;16.92;12.90;;;;;;;2.59;100.00;100150.66;4841461;29;20137;-64
2023/12/05 11:50:49;;;;;;;18.85;12.27;;;;;;;2.63;100.00;100157.22;4826193;29;20115;-66
2023/12/05 11:53:37;;;;;;;18.00;14.52;;;;;;;2.64;100.00;100156.97;4839840;29;20073;-65
2023/12/05 11:56:28;;;;;;;17.33;13.20;;;;;;;2.56;100.00;100160.81;4840147;29;20133;-66
2023/12/05 11:59:16;;;;;;;17.42;13.88;;;;;;;2.56;100.00;100163.50;4810025;29;20059;-67
2023/12/05 12:02:04;;;;;;;19.05;14.57;;;;;;;2.52;100.00;100159.63;4824589;29;20129;-66
2023/12/05 12:05:06;;;;;;;18.98;13.18;;;;;;;2.66;100.00;100170.19;4825423;29;20117;-66
2023/12/05 12:07:57;;;;;;;21.23;15.98;;;;;;;2.83;100.00;100171.13;4822358;29;20057;-67
2023/12/05 12:10:46;;;;;;;20.65;15.27;;;;;;;2.72;100.00;100171.97;4822654;29;20343;-67
2023/12/05 12:13:34;;;;;;;22.05;15.77;;;;;;;2.66;100.00;100176.38;4822326;29;20133;-65
2023/12/05 12:16:24;;;;;;;23.17;16.60;;;;;;;2.78;100.00;100182.59;4820931;29;20058;-66
2023/12/05 12:19:12;;;;;;;25.55;18.23;;;;;;;2.70;100.00;100182.94;4826445;29;20140;-67
2023/12/05 12:22:08;;;;;;;24.70;18.75;;;;;;;2.63;100.00;100186.78;4841098;29;20078;-66
2023/12/05 12:25:13;;;;;;;26.80;18.65;;;;;;;2.55;100.00;100191.44;4820086;29;20050;-66
2023/12/05 12:28:01;;;;;;;27.60;18.55;;;;;;;2.50;100.00;100191.31;4822159;29;20440;-66
2023/12/05 12:30:50;;;;;;;28.35;19.02;;;;;;;2.56;100.00;100194.97;4822586;29;20046;-65
2023/12/05 12:33:40;;;;;;;23.75;17.67;;;;;;;2.62;100.00;100190.50;4821334;29;20056;-67
2023/12/05 12:36:31;;;;;;;28.52;19.17;;;;;;;2.63;100.00;100197.56;4823781;29;20085;-66
2023/12/05 12:39:20;;;;;;;26.25;19.02;;;;;;;2.67;100.00;100187.94;4833082;29;20058;-67
2023/12/05 12:42:08;;;;;;;25.83;17.83;;;;;;;2.73;100.00;100197.78;4826858;29;20623;-67
2023/12/05 12:44:56;;;;;;;28.70;19.00;;;;;;;2.92;100.00;100199.34;4838104;29;20053;-66
2023/12/05 12:47:44;;;;;;;26.35;15.93;;;;;;;3.22;100.00;100201.09;4839709;29;20070;-67
2023/12/05 12:50:32;;;;;;;28.88;20.30;;;;;;;3.30;100.00;100199.94;4807964;29;20084;-67
2023/12/05 12:53:22;;;;;;;27.83;19.25;;;;;;;2.97;100.00;100207.53;4822387;29;20558;-67
2023/12/05 12:56:10;;;;;;;26.75;20.20;;;;;;;2.75;100.00;100214.53;4819965;29;20393;-67
2023/12/05 12:59:02;;;;;;;27.52;21.05;;;;;;;2.65;100.00;100214.28;4822206;29;20115;-67